Usma — V7LO2 — position and weather

sailwx.info

Track history (hours):
 
Tides and Currents Weather Stations Pressure Air Temp Water Temp Dewpoint Dewpoint Depression Visibility Wind Speed Wind Dir Waves Ship Positions

Usma

Last reported at 2018-Jun-25 12:00 UTC. Time now 2018-Jun-25 12:03 UTC.
Position N 55°10' E 011°01'.

Length 195 m; draft 10.7 m.

Type: Ship. MMSI: 538002776.

Date/timePositionNaut miles runAvg speedWind from/ knotsBaromVisibWave heightAir tempDewpointWater temp
2018-Jun-25 12:00N 55°10' E 011°01'611.6
2018-Jun-25 11:31N 55°04' E 010°60'611.4
2018-Jun-25 11:01N 54°58' E 010°58'510.5
2018-Jun-25 10:30N 54°54' E 010°52'4 8.7
2018-Jun-25 10:01N 54°50' E 010°50'611.9
2018-Jun-25 09:31N 54°44' E 010°47'510.1
2018-Jun-25 09:01N 54°40' E 010°50'612.2
2018-Jun-25 08:31N 54°37' E 010°59'611.5
2018-Jun-25 08:01N 54°36' E 011°09'611.5
2018-Jun-25 07:30N 54°34' E 011°18'612.2
2018-Jun-25 07:00N 54°31' E 011°28'612.3
2018-Jun-25 06:30N 54°29' E 011°38'612.1
2018-Jun-25 05:58N 54°28' E 011°49'612.3
2018-Jun-25 05:30N 54°27' E 011°59'611.9
2018-Jun-25 04:59N 54°27' E 012°09'1610.8
2018-Jun-25 03:30N 54°40' E 012°24'712.1
2018-Jun-25 02:57N 54°44' E 012°34'612.2
2018-Jun-25 02:30N 54°47' E 012°42'2512.5
2018-Jun-25 00:31N 54°56' E 013°22'012.5
2018-Jun-25 00:30N 54°56' E 013°22'612.6
2018-Jun-24 23:59N 54°58' E 013°33'613.1
2018-Jun-24 23:30N 54°60' E 013°43'713.1
2018-Jun-24 23:00N 55°02' E 013°54'1212.0
2018-Jun-24 22:02N 55°09' E 014°11'212.7
2018-Jun-24 21:53N 55°10' E 014°13'512.7
2018-Jun-24 21:30N 55°14' E 014°18'712.4
2018-Jun-24 20:58N 55°19' E 014°25'712.7
2018-Jun-24 20:27N 55°24' E 014°32'612.4
2018-Jun-24 20:00N 55°28' E 014°40'912.4
2018-Jun-24 19:15N 55°33' E 014°54'312.3
2018-Jun-24 18:59N 55°34' E 014°59'912.1
2018-Jun-24 18:14N 55°39' E 015°13'312.1
2018-Jun-24 17:58N 55°40' E 015°18'2312.6
2018-Jun-24 16:08N 55°52' E 015°54'212.7
2018-Jun-24 16:00N 55°52' E 015°56'1212.5
2018-Jun-24 15:03N 55°58' E 016°15'30212.2
2018-Jun-23 14:21N 59°34' E 022°51'512.1
2018-Jun-23 13:55N 59°35' E 023°01'512.4
2018-Jun-23 13:31N 59°37' E 023°11'612.5
2018-Jun-23 13:01N 59°38' E 023°23'612.6
2018-Jun-23 12:31N 59°40' E 023°35'612.3
2018-Jun-23 12:00N 59°41' E 023°47'1712.3
2018-Jun-23 10:39N 59°46' E 024°18'212.8
2018-Jun-23 10:30N 59°47' E 024°22'612.3
2018-Jun-23 10:01N 59°48' E 024°33'612.7
2018-Jun-23 09:31N 59°50' E 024°46'912.4
2018-Jun-23 08:46N 59°52' E 025°04'411.9
2018-Jun-23 08:24N 59°53' E 025°12'1311.7
2018-Jun-23 07:20N 60°00' E 025°32'3 9.8
2018-Jun-23 07:00N 60°03' E 025°35'  
2018-Jun-20 20:40N 60°04' E 025°35'311.1
2018-Jun-20 20:24N 60°01' E 025°34'1711.7
2018-Jun-20 18:55N 59°48' E 025°11'614.1
2018-Jun-20 18:30N 59°47' E 024°59'714.7
2018-Jun-20 18:00N 59°45' E 024°45'2414.1
2018-Jun-20 16:18N 59°39' E 023°59'414.6
2018-Jun-20 16:00N 59°38' E 023°51'814.5
2018-Jun-20 15:29N 59°35' E 023°37'714.4
2018-Jun-20 15:00N 59°33' E 023°25'914.3
2018-Jun-20 14:24N 59°30' E 023°08'34313.7
2018-Jun-19 13:19N 55°36' E 015°21'414.2
2018-Jun-19 13:00N 55°34' E 015°14'714.3
2018-Jun-19 12:30N 55°31' E 015°03'714.2
2018-Jun-19 12:00N 55°28' E 014°52'714.1
2018-Jun-19 11:30N 55°24' E 014°42'713.8
2018-Jun-19 11:00N 55°19' E 014°33'714.1
2018-Jun-19 10:29N 55°13' E 014°25'612.9
2018-Jun-19 10:00N 55°10' E 014°16'914.0
2018-Jun-19 09:20N 55°10' E 013°60'514.1
2018-Jun-19 08:58N 55°10' E 013°51'3314.1
2018-Jun-19 06:40N 55°14' E 012°54'614.3
2018-Jun-19 06:14N 55°16' E 012°44'313.7
2018-Jun-19 06:00N 55°18' E 012°39'713.3
2018-Jun-19 05:30N 55°24' E 012°39'713.7
2018-Jun-19 05:00N 55°31' E 012°42'5 9.4
2018-Jun-19 04:30N 55°35' E 012°42'611.4
2018-Jun-19 04:00N 55°41' E 012°41'611.8
2018-Jun-19 03:30N 55°47' E 012°42'713.9
2018-Jun-19 03:00N 55°54' E 012°39'714.1
2018-Jun-19 02:30N 56°01' E 012°38'612.4
2018-Jun-19 02:01N 56°06' E 012°32'8514.0
2018-Jun-18 19:57N 57°24' E 011°28'614.3
2018-Jun-18 19:31N 57°29' E 011°22'714.2
2018-Jun-18 19:00N 57°34' E 011°12'713.9
2018-Jun-18 18:30N 57°39' E 011°02'32113.1
2018-Jun-17 17:55N 53°36' E 004°50'614.4
2018-Jun-17 17:30N 53°30' E 004°46'2913.9
2018-Jun-17 15:25N 53°04' E 004°25'813.5
2018-Jun-17 14:51N 52°57' E 004°20'1613.1
2018-Jun-17 13:38N 52°44' E 004°06'313.0
2018-Jun-17 13:24N 52°41' E 004°03'513.1
2018-Jun-17 13:00N 52°38' E 003°56'713.0
2018-Jun-17 12:29N 52°33' E 003°48'612.8
2018-Jun-17 12:00N 52°29' E 003°41'612.6
2018-Jun-17 11:30N 52°24' E 003°34'5413.1
2018-Jun-17 07:23N 51°44' E 002°35'514.4
2018-Jun-17 07:00N 51°40' E 002°29'714.5
2018-Jun-17 06:30N 51°35' E 002°21'715.0
2018-Jun-17 06:00N 51°29' E 002°14'714.7
2018-Jun-17 05:30N 51°22' E 002°10'714.9
2018-Jun-17 05:00N 51°15' E 002°06'715.0
2018-Jun-17 04:31N 51°11' E 001°56'815.6
2018-Jun-17 04:01N 51°07' E 001°45'816.6
2018-Jun-17 03:30N 51°01' E 001°36'816.9
2018-Jun-17 03:00N 50°54' E 001°28'1216.5
2018-Jun-17 02:16N 50°43' E 001°21'415.4
2018-Jun-17 01:59N 50°40' E 001°16'4114.9
2018-Jun-16 23:15N 50°23' E 000°18'716.5
2018-Jun-16 22:48N 50°21' E 000°07'2515.0
2018-Jun-16 21:10N 50°30' W 000°29'515.0
2018-Jun-16 20:49N 50°33' W 000°36'515.4
2018-Jun-16 20:30N 50°35' W 000°42'815.6
2018-Jun-16 20:00N 50°39' W 000°53'5 9.4
2018-Jun-16 19:30N 50°42' W 000°58'510.6
2018-Jun-16 19:01N 50°45' W 001°06'713.7
2018-Jun-16 18:31N 50°46' W 001°16'4 7.3
2018-Jun-16 18:01N 50°50' W 001°19'1 1.7
2018-Jun-16 17:26N 50°50' W 001°20'0 0.0
2018-Jun-16 16:59N 50°50' W 001°20'0 0.0
2018-Jun-16 16:29N 50°50' W 001°20'0 0.0
2018-Jun-16 15:59N 50°50' W 001°20'0 0.0
2018-Jun-16 15:29N 50°50' W 001°20'0 0.0
2018-Jun-16 14:50N 50°50' W 001°20'0 0.0
2018-Jun-16 14:20N 50°50' W 001°20'0 0.0
2018-Jun-16 13:59N 50°50' W 001°20'0 0.0
2018-Jun-16 13:26N 50°50' W 001°20'0 0.0
2018-Jun-16 12:59N 50°50' W 001°20'0 0.0
2018-Jun-16 12:23N 50°50' W 001°20'0 0.0
2018-Jun-16 11:56N 50°50' W 001°20'0 0.0
2018-Jun-16 11:29N 50°50' W 001°20'0 0.0
2018-Jun-16 10:44N 50°50' W 001°20'0 0.0
2018-Jun-16 10:26N 50°50' W 001°20'0 0.0
2018-Jun-16 09:56N 50°50' W 001°20'0 0.0
2018-Jun-16 09:29N 50°50' W 001°20'0 0.0
2018-Jun-16 08:59N 50°50' W 001°20'0 0.0
2018-Jun-16 08:23N 50°50' W 001°20'0 0.0
2018-Jun-16 07:56N 50°50' W 001°20'0 0.0
2018-Jun-16 07:29N 50°50' W 001°20'0 0.0
2018-Jun-16 06:50N 50°50' W 001°20'0 0.0
2018-Jun-16 06:29N 50°50' W 001°20'0 0.0
2018-Jun-16 05:59N 50°50' W 001°20'0 0.0
2018-Jun-16 05:29N 50°50' W 001°20'0 0.0
2018-Jun-16 04:59N 50°50' W 001°20'0 0.0
2018-Jun-16 04:26N 50°50' W 001°20'0 0.0
2018-Jun-16 03:56N 50°50' W 001°20'0 0.0
2018-Jun-16 03:20N 50°50' W 001°20'0 0.0
2018-Jun-16 02:59N 50°50' W 001°20'0 0.0
2018-Jun-16 02:29N 50°50' W 001°20'0 0.0
2018-Jun-16 01:56N 50°50' W 001°20'0 0.0
2018-Jun-16 01:29N 50°50' W 001°20'0 0.0
2018-Jun-16 00:59N 50°50' W 001°20'0 0.0
2018-Jun-15 23:14N 50°50' W 001°20'0 0.0
2018-Jun-15 22:56N 50°50' W 001°20'0 0.0
2018-Jun-15 22:29N 50°50' W 001°20'0 0.0
2018-Jun-15 21:59N 50°50' W 001°20'0 0.0
2018-Jun-15 21:20N 50°50' W 001°20'0 0.0
2018-Jun-15 20:56N 50°50' W 001°20'0 0.0
2018-Jun-15 20:26N 50°50' W 001°20'0 0.0
2018-Jun-15 19:50N 50°50' W 001°20'0 0.0
2018-Jun-15 19:20N 50°50' W 001°20'0 0.0
2018-Jun-15 18:56N 50°50' W 001°20'0 0.0
2018-Jun-15 18:20N 50°50' W 001°20'0 0.0
2018-Jun-15 17:26N 50°50' W 001°20'0 0.0
2018-Jun-15 16:38N 50°50' W 001°20'0 0.0
2018-Jun-15 16:26N 50°50' W 001°20'0 0.0
2018-Jun-15 15:56N 50°50' W 001°20'0 0.0
2018-Jun-15 14:50N 50°50' W 001°20'0 0.0
2018-Jun-15 14:26N 50°50' W 001°20'0 0.0
2018-Jun-15 13:38N 50°50' W 001°20'0 0.0
2018-Jun-15 13:26N 50°50' W 001°20'0 0.0
2018-Jun-15 12:32N 50°50' W 001°20'  
Track history (hours):
 
Tides and Currents Weather Stations Pressure Air Temp Water Temp Dewpoint Dewpoint Depression Visibility Wind Speed Wind Dir Waves Ship Positions

Usma

Last reported at 2018-Jun-25 12:00 UTC. Time now 2018-Jun-25 12:03 UTC.
Position N 55°10' E 011°01'.

Length 195 m; draft 10.7 m.

Type: Ship. MMSI: 538002776.

Date/timePositionNaut miles runAvg speedWind from/ knotsBaromVisibWave heightAir tempDewpointWater temp
2018-Jun-25 12:00N 55°10' E 011°01'611.6
2018-Jun-25 11:31N 55°04' E 010°60'611.4
2018-Jun-25 11:01N 54°58' E 010°58'510.5
2018-Jun-25 10:30N 54°54' E 010°52'4 8.7
2018-Jun-25 10:01N 54°50' E 010°50'611.9
2018-Jun-25 09:31N 54°44' E 010°47'510.1
2018-Jun-25 09:01N 54°40' E 010°50'612.2
2018-Jun-25 08:31N 54°37' E 010°59'611.5
2018-Jun-25 08:01N 54°36' E 011°09'611.5
2018-Jun-25 07:30N 54°34' E 011°18'612.2
2018-Jun-25 07:00N 54°31' E 011°28'612.3
2018-Jun-25 06:30N 54°29' E 011°38'612.1
2018-Jun-25 05:58N 54°28' E 011°49'612.3
2018-Jun-25 05:30N 54°27' E 011°59'611.9
2018-Jun-25 04:59N 54°27' E 012°09'1610.8
2018-Jun-25 03:30N 54°40' E 012°24'712.1
2018-Jun-25 02:57N 54°44' E 012°34'612.2
2018-Jun-25 02:30N 54°47' E 012°42'2512.5
2018-Jun-25 00:31N 54°56' E 013°22'012.5
2018-Jun-25 00:30N 54°56' E 013°22'612.6
2018-Jun-24 23:59N 54°58' E 013°33'613.1
2018-Jun-24 23:30N 54°60' E 013°43'713.1
2018-Jun-24 23:00N 55°02' E 013°54'1212.0
2018-Jun-24 22:02N 55°09' E 014°11'212.7
2018-Jun-24 21:53N 55°10' E 014°13'512.7
2018-Jun-24 21:30N 55°14' E 014°18'712.4
2018-Jun-24 20:58N 55°19' E 014°25'712.7
2018-Jun-24 20:27N 55°24' E 014°32'612.4
2018-Jun-24 20:00N 55°28' E 014°40'912.4
2018-Jun-24 19:15N 55°33' E 014°54'312.3
2018-Jun-24 18:59N 55°34' E 014°59'912.1
2018-Jun-24 18:14N 55°39' E 015°13'312.1
2018-Jun-24 17:58N 55°40' E 015°18'2312.6
2018-Jun-24 16:08N 55°52' E 015°54'212.7
2018-Jun-24 16:00N 55°52' E 015°56'1212.5
2018-Jun-24 15:03N 55°58' E 016°15'30212.2
2018-Jun-23 14:21N 59°34' E 022°51'512.1
2018-Jun-23 13:55N 59°35' E 023°01'512.4
2018-Jun-23 13:31N 59°37' E 023°11'612.5
2018-Jun-23 13:01N 59°38' E 023°23'612.6
2018-Jun-23 12:31N 59°40' E 023°35'612.3
2018-Jun-23 12:00N 59°41' E 023°47'1712.3
2018-Jun-23 10:39N 59°46' E 024°18'212.8
2018-Jun-23 10:30N 59°47' E 024°22'612.3
2018-Jun-23 10:01N 59°48' E 024°33'612.7
2018-Jun-23 09:31N 59°50' E 024°46'912.4
2018-Jun-23 08:46N 59°52' E 025°04'411.9
2018-Jun-23 08:24N 59°53' E 025°12'1311.7
2018-Jun-23 07:20N 60°00' E 025°32'3 9.8
2018-Jun-23 07:00N 60°03' E 025°35'  
2018-Jun-20 20:40N 60°04' E 025°35'311.1
2018-Jun-20 20:24N 60°01' E 025°34'1711.7
2018-Jun-20 18:55N 59°48' E 025°11'614.1
2018-Jun-20 18:30N 59°47' E 024°59'714.7
2018-Jun-20 18:00N 59°45' E 024°45'2414.1
2018-Jun-20 16:18N 59°39' E 023°59'414.6
2018-Jun-20 16:00N 59°38' E 023°51'814.5
2018-Jun-20 15:29N 59°35' E 023°37'714.4
2018-Jun-20 15:00N 59°33' E 023°25'914.3
2018-Jun-20 14:24N 59°30' E 023°08'34313.7
2018-Jun-19 13:19N 55°36' E 015°21'414.2
2018-Jun-19 13:00N 55°34' E 015°14'714.3
2018-Jun-19 12:30N 55°31' E 015°03'714.2
2018-Jun-19 12:00N 55°28' E 014°52'714.1
2018-Jun-19 11:30N 55°24' E 014°42'713.8
2018-Jun-19 11:00N 55°19' E 014°33'714.1
2018-Jun-19 10:29N 55°13' E 014°25'612.9
2018-Jun-19 10:00N 55°10' E 014°16'914.0
2018-Jun-19 09:20N 55°10' E 013°60'514.1
2018-Jun-19 08:58N 55°10' E 013°51'3314.1
2018-Jun-19 06:40N 55°14' E 012°54'614.3
2018-Jun-19 06:14N 55°16' E 012°44'313.7
2018-Jun-19 06:00N 55°18' E 012°39'713.3
2018-Jun-19 05:30N 55°24' E 012°39'713.7
2018-Jun-19 05:00N 55°31' E 012°42'5 9.4
2018-Jun-19 04:30N 55°35' E 012°42'611.4
2018-Jun-19 04:00N 55°41' E 012°41'611.8
2018-Jun-19 03:30N 55°47' E 012°42'713.9
2018-Jun-19 03:00N 55°54' E 012°39'714.1
2018-Jun-19 02:30N 56°01' E 012°38'612.4
2018-Jun-19 02:01N 56°06' E 012°32'8514.0
2018-Jun-18 19:57N 57°24' E 011°28'614.3
2018-Jun-18 19:31N 57°29' E 011°22'714.2
2018-Jun-18 19:00N 57°34' E 011°12'713.9
2018-Jun-18 18:30N 57°39' E 011°02'32113.1
2018-Jun-17 17:55N 53°36' E 004°50'614.4
2018-Jun-17 17:30N 53°30' E 004°46'2913.9
2018-Jun-17 15:25N 53°04' E 004°25'813.5
2018-Jun-17 14:51N 52°57' E 004°20'1613.1
2018-Jun-17 13:38N 52°44' E 004°06'313.0
2018-Jun-17 13:24N 52°41' E 004°03'513.1
2018-Jun-17 13:00N 52°38' E 003°56'713.0
2018-Jun-17 12:29N 52°33' E 003°48'612.8
2018-Jun-17 12:00N 52°29' E 003°41'612.6
2018-Jun-17 11:30N 52°24' E 003°34'5413.1
2018-Jun-17 07:23N 51°44' E 002°35'514.4
2018-Jun-17 07:00N 51°40' E 002°29'714.5
2018-Jun-17 06:30N 51°35' E 002°21'715.0
2018-Jun-17 06:00N 51°29' E 002°14'714.7
2018-Jun-17 05:30N 51°22' E 002°10'714.9
2018-Jun-17 05:00N 51°15' E 002°06'715.0
2018-Jun-17 04:31N 51°11' E 001°56'815.6
2018-Jun-17 04:01N 51°07' E 001°45'816.6
2018-Jun-17 03:30N 51°01' E 001°36'816.9
2018-Jun-17 03:00N 50°54' E 001°28'1216.5
2018-Jun-17 02:16N 50°43' E 001°21'415.4
2018-Jun-17 01:59N 50°40' E 001°16'4114.9
2018-Jun-16 23:15N 50°23' E 000°18'716.5
2018-Jun-16 22:48N 50°21' E 000°07'2515.0
2018-Jun-16 21:10N 50°30' W 000°29'515.0
2018-Jun-16 20:49N 50°33' W 000°36'515.4
2018-Jun-16 20:30N 50°35' W 000°42'815.6
2018-Jun-16 20:00N 50°39' W 000°53'5 9.4
2018-Jun-16 19:30N 50°42' W 000°58'510.6
2018-Jun-16 19:01N 50°45' W 001°06'713.7
2018-Jun-16 18:31N 50°46' W 001°16'4 7.3
2018-Jun-16 18:01N 50°50' W 001°19'1 1.7
2018-Jun-16 17:26N 50°50' W 001°20'0 0.0
2018-Jun-16 16:59N 50°50' W 001°20'0 0.0
2018-Jun-16 16:29N 50°50' W 001°20'0 0.0
2018-Jun-16 15:59N 50°50' W 001°20'0 0.0
2018-Jun-16 15:29N 50°50' W 001°20'0 0.0
2018-Jun-16 14:50N 50°50' W 001°20'0 0.0
2018-Jun-16 14:20N 50°50' W 001°20'0 0.0
2018-Jun-16 13:59N 50°50' W 001°20'0 0.0
2018-Jun-16 13:26N 50°50' W 001°20'0 0.0
2018-Jun-16 12:59N 50°50' W 001°20'0 0.0
2018-Jun-16 12:23N 50°50' W 001°20'0 0.0
2018-Jun-16 11:56N 50°50' W 001°20'0 0.0
2018-Jun-16 11:29N 50°50' W 001°20'0 0.0
2018-Jun-16 10:44N 50°50' W 001°20'0 0.0
2018-Jun-16 10:26N 50°50' W 001°20'0 0.0
2018-Jun-16 09:56N 50°50' W 001°20'0 0.0
2018-Jun-16 09:29N 50°50' W 001°20'0 0.0
2018-Jun-16 08:59N 50°50' W 001°20'0 0.0
2018-Jun-16 08:23N 50°50' W 001°20'0 0.0
2018-Jun-16 07:56N 50°50' W 001°20'0 0.0
2018-Jun-16 07:29N 50°50' W 001°20'0 0.0
2018-Jun-16 06:50N 50°50' W 001°20'0 0.0
2018-Jun-16 06:29N 50°50' W 001°20'0 0.0
2018-Jun-16 05:59N 50°50' W 001°20'0 0.0
2018-Jun-16 05:29N 50°50' W 001°20'0 0.0
2018-Jun-16 04:59N 50°50' W 001°20'0 0.0
2018-Jun-16 04:26N 50°50' W 001°20'0 0.0
2018-Jun-16 03:56N 50°50' W 001°20'0 0.0
2018-Jun-16 03:20N 50°50' W 001°20'0 0.0
2018-Jun-16 02:59N 50°50' W 001°20'0 0.0
2018-Jun-16 02:29N 50°50' W 001°20'0 0.0
2018-Jun-16 01:56N 50°50' W 001°20'0 0.0
2018-Jun-16 01:29N 50°50' W 001°20'0 0.0
2018-Jun-16 00:59N 50°50' W 001°20'0 0.0
2018-Jun-15 23:14N 50°50' W 001°20'0 0.0
2018-Jun-15 22:56N 50°50' W 001°20'0 0.0
2018-Jun-15 22:29N 50°50' W 001°20'0 0.0
2018-Jun-15 21:59N 50°50' W 001°20'0 0.0
2018-Jun-15 21:20N 50°50' W 001°20'0 0.0
2018-Jun-15 20:56N 50°50' W 001°20'0 0.0
2018-Jun-15 20:26N 50°50' W 001°20'0 0.0
2018-Jun-15 19:50N 50°50' W 001°20'0 0.0
2018-Jun-15 19:20N 50°50' W 001°20'0 0.0
2018-Jun-15 18:56N 50°50' W 001°20'0 0.0
2018-Jun-15 18:20N 50°50' W 001°20'0 0.0
2018-Jun-15 17:26N 50°50' W 001°20'0 0.0
2018-Jun-15 16:38N 50°50' W 001°20'0 0.0
2018-Jun-15 16:26N 50°50' W 001°20'0 0.0
2018-Jun-15 15:56N 50°50' W 001°20'0 0.0
2018-Jun-15 14:50N 50°50' W 001°20'0 0.0
2018-Jun-15 14:26N 50°50' W 001°20'0 0.0
2018-Jun-15 13:38N 50°50' W 001°20'0 0.0
2018-Jun-15 13:26N 50°50' W 001°20'0 0.0
2018-Jun-15 12:32N 50°50' W 001°20'  

Dump ship's entire track history